ROMMA est une association bénévole à but non lucratif. Votre soutien est indispensable : ADHERER à ROMMA ou FAIRE un DON

Crempigny-Bonneguête - (74, Haute-Savoie)

Albanais-Montagne des Princes (500 m)   Longitude: 05° 54' 5" E   Latitude: 45° 57' 0" N Station partenaire n°10
 

Détail journalier du     <<     >>

Température Precipitation Humidité Pression Vent Dir Rafale Dir. rafale Ensol. 20 cm au dessus du sol
Heure (°C) (mm) (%) (hPa) (km/h) (km/h) (min) (°C)
01:00 6.7092101203SO06.1
02:00 6.609310121SO3SO06.1
03:00 6.609410121SO3SO06.1
04:00 6.409510121SO3SO06.1
05:00 6.109510121OSO5OSO05.6
06:00 5.609510121OSO5OSO05.0
07:00 5.909610121OSO3OSO05.6
08:00 5.809510123NNE8NO05.6
09:00 6.709310122NNO8NO305.6
10:00 7.908810123ENE10SSO309.4
11:00 8.608310123SSO10S258.9
12:00 10.807510113SE11ESE5013.9
13:00 11.206510116E15ENE3512.2
14:00 13.606210113ENE13E3516.1
15:00 12.306110114ESE11ONO1013.3
16:00 12.206010118ONO16ONO013.3
17:00 12.605710116NO18NO013.3
18:00 12.705810116ONO13ONO512.8
19:00 12.405910116NO11NO012.2
20:00 10.806710118NO16NO010.0
21:00 9.8071101111NO18ONO08.9
22:00 9.1075101112ONO21ONO07.8
23:00 8.707510114SO11NO07.2
minuit 7.807810112NNO5O05.6

Graphique du 08-04-2019

 

Serveur OMMA